createdAt,value
2022-11-24T00:02:16.820Z,94154.63
2022-11-24T00:04:43.276Z,94157.16
2022-11-24T00:07:09.723Z,94144.63
2022-11-24T00:09:36.092Z,94165.41
2022-11-24T00:12:02.791Z,94175.56
2022-11-24T00:14:29.188Z,94174.88
2022-11-24T00:16:55.764Z,94169.81
2022-11-24T00:19:22.256Z,94156.78
2022-11-24T00:21:48.656Z,94166.28
2022-11-24T00:24:15.092Z,94166.28
2022-11-24T00:26:41.536Z,94180.06
2022-11-24T00:29:09.256Z,94176.28
2022-11-24T00:31:38.495Z,94167.16
2022-11-24T00:34:09.593Z,94180.00
2022-11-24T00:36:36.697Z,94177.13
2022-11-24T00:39:06.136Z,94185.16
2022-11-24T00:41:33.109Z,94191.97
2022-11-24T00:44:00.309Z,94203.56
2022-11-24T00:46:27.278Z,94204.94
2022-11-24T00:48:54.067Z,94205.81
2022-11-24T00:51:23.264Z,94217.19
2022-11-24T00:53:49.750Z,94221.34
2022-11-24T00:56:16.323Z,94220.59
2022-11-24T00:58:42.732Z,94237.97
2022-11-24T01:01:15.582Z,94230.44
2022-11-24T01:03:42.572Z,94239.28
2022-11-24T01:06:14.717Z,94231.69
2022-11-24T01:08:41.845Z,94226.66
2022-11-24T01:11:20.102Z,94239.31
2022-11-24T01:13:51.261Z,94247.97
2022-11-24T01:16:25.621Z,94248.38
2022-11-24T01:18:52.647Z,94256.88
2022-11-24T01:21:20.114Z,94257.75
2022-11-24T01:23:46.861Z,94255.75
2022-11-24T01:26:16.737Z,94271.47
2022-11-24T01:28:47.174Z,94271.56
2022-11-24T01:31:15.222Z,94276.69
2022-11-24T01:33:41.720Z,94274.44
2022-11-24T01:36:08.155Z,94272.44
2022-11-24T01:38:34.607Z,94270.41
2022-11-24T01:41:22.354Z,94272.47
2022-11-24T01:43:49.670Z,94265.94
2022-11-24T01:46:42.054Z,94273.31
2022-11-24T01:49:08.382Z,94276.00
2022-11-24T01:51:39.212Z,94265.97
2022-11-24T01:54:11.254Z,94276.66
2022-11-24T01:56:42.508Z,94266.72
2022-11-24T01:59:14.294Z,94280.72
2022-11-24T02:01:40.758Z,94288.53
2022-11-24T02:04:15.682Z,94296.25
2022-11-24T02:06:44.242Z,94296.47
2022-11-24T02:09:27.643Z,94304.34
2022-11-24T02:11:54.836Z,94307.69
2022-11-24T02:14:23.768Z,94298.47
2022-11-24T02:16:51.580Z,94311.00
2022-11-24T02:19:31.890Z,94329.38
2022-11-24T02:21:58.584Z,94307.31
2022-11-24T02:24:37.341Z,94310.44
2022-11-24T02:27:03.958Z,94315.84
2022-11-24T02:29:30.541Z,94302.69
2022-11-24T02:32:01.648Z,94317.44
2022-11-24T02:34:28.048Z,94324.53
2022-11-24T02:36:54.448Z,94323.84
2022-11-24T02:39:20.885Z,94320.47
2022-11-24T02:42:01.545Z,94318.06
2022-11-24T02:44:32.827Z,94323.09
2022-11-24T02:47:08.667Z,94335.38
2022-11-24T02:49:35.543Z,94340.03
2022-11-24T02:52:02.369Z,94339.72
2022-11-24T02:54:28.818Z,94332.84
2022-11-24T02:56:55.535Z,94337.06
2022-11-24T02:59:22.120Z,94347.69
2022-11-24T03:01:48.596Z,94339.69
2022-11-24T03:04:15.139Z,94356.97
2022-11-24T03:06:43.223Z,94352.75
2022-11-24T03:09:11.314Z,94360.03
2022-11-24T03:11:38.483Z,94348.03
2022-11-24T03:14:05.898Z,94368.94
2022-11-24T03:16:32.610Z,94374.13
2022-11-24T03:18:59.433Z,94375.72
2022-11-24T03:21:25.888Z,94374.59
2022-11-24T03:23:53.332Z,94388.06
2022-11-24T03:26:22.047Z,94388.78
2022-11-24T03:28:48.448Z,94389.38
2022-11-24T03:31:15.139Z,94392.75
2022-11-24T03:33:41.630Z,94407.75
2022-11-24T03:36:08.684Z,94405.47
2022-11-24T03:38:35.138Z,94398.19
2022-11-24T03:41:01.574Z,94402.56
2022-11-24T03:43:28.083Z,94405.66
2022-11-24T03:45:54.472Z,94409.25
2022-11-24T03:48:21.282Z,94411.66
2022-11-24T03:50:58.803Z,94408.44
2022-11-24T03:53:26.949Z,94418.34
2022-11-24T03:55:53.382Z,94416.75
2022-11-24T03:58:20.071Z,94424.34
2022-11-24T04:00:49.482Z,94426.59
2022-11-24T04:03:16.050Z,94418.25
2022-11-24T04:05:42.465Z,94439.19
2022-11-24T04:08:09.286Z,94434.00
2022-11-24T04:10:37.820Z,94428.63
2022-11-24T04:13:10.361Z,94420.28
2022-11-24T04:15:40.026Z,94434.31
2022-11-24T04:18:06.844Z,94434.91
2022-11-24T04:20:33.493Z,94448.63
2022-11-24T04:23:00.071Z,94445.63
2022-11-24T04:25:26.947Z,94456.94
2022-11-24T04:27:55.168Z,94451.78
2022-11-24T04:30:23.166Z,94441.19
2022-11-24T04:32:49.746Z,94451.56
2022-11-24T04:35:16.420Z,94463.88
2022-11-24T04:37:42.818Z,94462.44
2022-11-24T04:40:11.182Z,94457.63
2022-11-24T04:42:37.957Z,94460.22
2022-11-24T04:45:06.510Z,94465.47
2022-11-24T04:47:33.116Z,94462.88
2022-11-24T04:50:00.223Z,94448.75
2022-11-24T04:52:26.618Z,94471.19
2022-11-24T04:54:53.022Z,94465.88
2022-11-24T04:57:22.004Z,94451.69
2022-11-24T04:59:49.744Z,94449.22
2022-11-24T05:02:16.813Z,94465.41
2022-11-24T05:04:43.526Z,94452.38
2022-11-24T05:07:18.302Z,94448.78
2022-11-24T05:10:04.114Z,94465.38
2022-11-24T05:12:31.291Z,94469.69
2022-11-24T05:14:59.302Z,94480.03
2022-11-24T05:17:29.698Z,94476.78
2022-11-24T05:19:56.120Z,94474.56
2022-11-24T05:22:22.652Z,94480.97
2022-11-24T05:24:48.996Z,94476.56
2022-11-24T05:27:15.697Z,94486.63
2022-11-24T05:29:42.076Z,94473.19
2022-11-24T05:32:08.463Z,94470.28
2022-11-24T05:34:35.052Z,94477.41
2022-11-24T05:37:04.544Z,94480.63
2022-11-24T05:39:37.991Z,94481.22
2022-11-24T05:42:25.032Z,94477.81
2022-11-24T05:44:51.946Z,94503.78
2022-11-24T05:47:18.811Z,94480.78
2022-11-24T05:49:45.437Z,94485.50
2022-11-24T05:52:12.288Z,94499.63
2022-11-24T05:54:38.775Z,94501.31
2022-11-24T05:57:05.466Z,94504.31
2022-11-24T05:59:31.846Z,94514.41
2022-11-24T06:01:58.308Z,94514.34
2022-11-24T06:04:24.758Z,94503.84
2022-11-24T06:06:51.290Z,94523.00
2022-11-24T06:09:17.850Z,94511.97
2022-11-24T06:11:44.214Z,94494.59
2022-11-24T06:14:11.526Z,94509.84
2022-11-24T06:16:38.392Z,94509.72
2022-11-24T06:19:04.980Z,94512.72
2022-11-24T06:21:31.801Z,94520.97
2022-11-24T06:23:58.499Z,94518.91
2022-11-24T06:26:24.889Z,94524.38
2022-11-24T06:28:51.267Z,94519.03
2022-11-24T06:31:17.699Z,94528.16
2022-11-24T06:33:44.303Z,94539.16
2022-11-24T06:36:14.033Z,94543.31
2022-11-24T06:38:40.345Z,94535.53
2022-11-24T06:41:09.771Z,94520.72
2022-11-24T06:43:36.221Z,94538.19
2022-11-24T06:46:03.501Z,94540.78
2022-11-24T06:48:30.836Z,94544.59
2022-11-24T06:51:08.407Z,94534.84
2022-11-24T06:53:37.950Z,94549.75
2022-11-24T06:56:15.248Z,94557.34
2022-11-24T06:58:45.080Z,94558.53
2022-11-24T07:01:16.761Z,94559.25
2022-11-24T07:03:43.313Z,94554.72
2022-11-24T07:06:09.991Z,94558.44
2022-11-24T07:08:36.526Z,94552.94
2022-11-24T07:11:08.162Z,94562.81
2022-11-24T07:13:35.029Z,94563.41
2022-11-24T07:16:16.277Z,94550.47
2022-11-24T07:18:47.021Z,94575.66
2022-11-24T07:21:14.004Z,94569.38
2022-11-24T07:23:40.404Z,94570.59
2022-11-24T07:26:08.151Z,94566.13
2022-11-24T07:28:36.615Z,94567.88
2022-11-24T07:31:07.779Z,94565.66
2022-11-24T07:33:34.555Z,94567.28
2022-11-24T07:36:01.912Z,94567.03
2022-11-24T07:38:29.717Z,94569.69
2022-11-24T07:41:03.639Z,94565.50
2022-11-24T07:43:34.293Z,94558.09
2022-11-24T07:46:00.970Z,94557.88
2022-11-24T07:48:27.551Z,94570.25
2022-11-24T07:50:55.979Z,94571.97
2022-11-24T07:53:22.824Z,94568.13
2022-11-24T07:56:00.614Z,94565.88
2022-11-24T07:58:33.160Z,94569.78
2022-11-24T08:01:00.935Z,94573.41
2022-11-24T08:03:27.930Z,94567.28
2022-11-24T08:08:46.421Z,94560.13
2022-11-24T08:11:15.944Z,94548.28
2022-11-24T08:13:42.900Z,94552.53
2022-11-24T08:16:12.030Z,94545.31
2022-11-24T08:18:39.195Z,94565.13
2022-11-24T08:21:06.916Z,94546.78
2022-11-24T08:23:33.736Z,94553.47
2022-11-24T08:26:05.080Z,94544.75
2022-11-24T08:28:31.965Z,94551.56
2022-11-24T08:31:06.469Z,94571.56
2022-11-24T08:33:32.956Z,94567.38
2022-11-24T08:36:07.393Z,94553.13
2022-11-24T08:38:34.087Z,94572.72
2022-11-24T08:41:12.254Z,94575.81
2022-11-24T08:43:38.977Z,94571.31
2022-11-24T08:46:07.861Z,94551.06
2022-11-24T08:48:34.979Z,94556.81
2022-11-24T08:51:08.313Z,94556.06
2022-11-24T08:53:34.753Z,94547.66
2022-11-24T08:56:01.697Z,94562.69
2022-11-24T08:58:28.908Z,94558.88
2022-11-24T09:00:55.412Z,94538.13
2022-11-24T09:03:22.051Z,94550.00
2022-11-24T09:05:52.776Z,94548.16
2022-11-24T09:08:19.471Z,94546.25
2022-11-24T09:10:45.855Z,94553.53
2022-11-24T09:13:12.228Z,94551.13
2022-11-24T09:15:38.611Z,94553.72
2022-11-24T09:18:05.421Z,94546.78
2022-11-24T09:20:31.812Z,94546.13
2022-11-24T09:22:58.160Z,94558.00
2022-11-24T09:25:24.539Z,94565.94
2022-11-24T09:27:51.292Z,94561.19
2022-11-24T09:30:17.819Z,94562.03
2022-11-24T09:32:44.196Z,94554.88
2022-11-24T09:35:10.568Z,94569.78
2022-11-24T09:37:37.142Z,94558.16
2022-11-24T09:40:03.971Z,94572.47
2022-11-24T09:42:53.366Z,94567.31
2022-11-24T09:46:04.533Z,94552.19
2022-11-24T09:48:33.345Z,94564.25
2022-11-24T09:51:03.592Z,94574.16
2022-11-24T09:53:45.925Z,94565.47
2022-11-24T09:56:23.865Z,94585.78
2022-11-24T09:59:10.496Z,94582.81
2022-11-24T10:01:41.977Z,94590.72
2022-11-24T10:04:18.357Z,94599.41
2022-11-24T10:07:12.387Z,94609.47
2022-11-24T10:09:44.622Z,94623.22
2022-11-24T10:12:48.663Z,94626.28
2022-11-24T10:15:25.771Z,94630.66
2022-11-24T10:18:16.197Z,94617.19
2022-11-24T10:20:59.254Z,94628.78
2022-11-24T10:23:53.336Z,94616.06
2022-11-24T10:26:31.713Z,94624.03
2022-11-24T10:28:58.120Z,94646.22
2022-11-24T10:31:35.688Z,94605.50
2022-11-24T10:34:13.529Z,94603.59
2022-11-24T10:36:48.354Z,94610.19
2022-11-24T10:39:34.899Z,94605.09
2022-11-24T10:42:17.851Z,94617.06
2022-11-24T10:44:44.357Z,94614.22
2022-11-24T10:47:22.696Z,94616.47
2022-11-24T10:50:20.986Z,94614.00
2022-11-24T10:53:14.540Z,94611.88
2022-11-24T10:55:58.854Z,94612.91
2022-11-24T10:58:26.647Z,94617.50
2022-11-24T11:00:54.870Z,94606.13
2022-11-24T11:03:31.658Z,94602.91
2022-11-24T11:06:15.617Z,94605.63
2022-11-24T11:08:42.054Z,94607.38
2022-11-24T11:11:28.316Z,94605.69
2022-11-24T11:14:03.875Z,94595.50
2022-11-24T11:16:38.946Z,94608.19
2022-11-24T11:20:00.334Z,94598.31
2022-11-24T11:22:28.890Z,94604.84
2022-11-24T11:25:07.895Z,94616.41
2022-11-24T11:27:34.620Z,94613.84
2022-11-24T11:35:51.137Z,94622.94
2022-11-24T11:38:18.336Z,94622.25
2022-11-24T11:40:47.833Z,94629.91
2022-11-24T11:43:31.783Z,94631.94
2022-11-24T11:46:09.282Z,94649.97
2022-11-24T11:48:43.223Z,94633.25
2022-11-24T11:51:25.563Z,94641.16
2022-11-24T11:54:19.925Z,94629.09
2022-11-24T11:56:50.075Z,94651.25
2022-11-24T11:59:22.273Z,94665.28
2022-11-24T12:02:03.933Z,94653.81
2022-11-24T12:04:52.575Z,94639.59
2022-11-24T12:07:37.601Z,94666.72
2022-11-24T12:10:25.918Z,94673.03
2022-11-24T12:13:10.839Z,94666.22
2022-11-24T12:15:47.207Z,94675.31
2022-11-24T12:18:55.893Z,94676.25
2022-11-24T12:21:29.736Z,94651.13
2022-11-24T12:24:17.992Z,94673.41
2022-11-24T12:27:03.369Z,94662.47
2022-11-24T12:29:54.165Z,94681.22
2022-11-24T12:32:32.473Z,94661.53
2022-11-24T12:35:17.877Z,94695.47
2022-11-24T12:38:04.306Z,94683.19
2022-11-24T12:41:18.212Z,94701.56
2022-11-24T12:43:55.440Z,94676.31
2022-11-24T12:46:53.654Z,94691.03
2022-11-24T12:49:29.948Z,94688.59
2022-11-24T12:52:03.215Z,94696.94
2022-11-24T12:54:38.609Z,94685.97
2022-11-24T12:57:10.677Z,94686.78
2022-11-24T12:59:48.003Z,94689.19
2022-11-24T13:02:29.701Z,94682.16
2022-11-24T13:05:35.289Z,94698.66
2022-11-24T13:08:04.278Z,94679.16
2022-11-24T13:10:54.897Z,94690.28
2022-11-24T13:13:26.351Z,94701.56
2022-11-24T13:16:07.124Z,94695.72
2022-11-24T13:18:44.281Z,94686.06
2022-11-24T13:21:41.399Z,94697.53
2022-11-24T13:24:16.702Z,94677.97
2022-11-24T13:26:47.243Z,94697.53
2022-11-24T13:29:36.229Z,94694.19
2022-11-24T13:32:02.568Z,94702.88
2022-11-24T13:34:41.011Z,94705.31
2022-11-24T13:37:31.784Z,94720.69
2022-11-24T13:40:13.164Z,94718.00
2022-11-24T13:42:54.808Z,94712.84
2022-11-24T13:45:39.722Z,94716.81
2022-11-24T13:48:22.619Z,94714.38
2022-11-24T13:50:58.400Z,94707.78
2022-11-24T13:53:40.203Z,94729.66
2022-11-24T13:56:12.594Z,94730.47
2022-11-24T13:58:41.781Z,94720.38
2022-11-24T14:01:12.925Z,94725.47
2022-11-24T14:04:07.159Z,94728.69
2022-11-24T14:06:44.062Z,94726.44
2022-11-24T14:09:32.108Z,94729.50
2022-11-24T14:12:07.555Z,94726.66
2022-11-24T14:14:34.276Z,94731.34
2022-11-24T14:17:13.055Z,94733.16
2022-11-24T14:19:39.678Z,94733.59
2022-11-24T14:22:06.166Z,94728.69
2022-11-24T14:24:39.753Z,94734.78
2022-11-24T14:27:14.357Z,94729.81
2022-11-24T14:29:57.815Z,94725.53
2022-11-24T14:32:24.951Z,94736.28
2022-11-24T14:34:52.240Z,94743.59
2022-11-24T14:37:20.011Z,94738.31
2022-11-24T14:39:46.947Z,94735.53
2022-11-24T14:42:22.040Z,94747.22
2022-11-24T14:44:59.860Z,94743.41
2022-11-24T14:47:31.821Z,94761.03
2022-11-24T14:50:09.394Z,94761.75
2022-11-24T14:52:36.426Z,94760.56
2022-11-24T14:55:21.421Z,94755.53
2022-11-24T14:57:49.060Z,94781.09
2022-11-24T15:00:19.477Z,94772.22
2022-11-24T15:02:51.813Z,94780.50
2022-11-24T15:05:24.076Z,94777.44
2022-11-24T15:08:01.030Z,94782.19
2022-11-24T15:10:37.266Z,94788.25
2022-11-24T15:13:13.876Z,94791.88
2022-11-24T15:15:46.145Z,94792.69
2022-11-24T15:18:27.796Z,94807.63
2022-11-24T15:20:54.783Z,94810.44
2022-11-24T15:23:29.207Z,94805.66
2022-11-24T15:25:57.211Z,94799.75
2022-11-24T15:28:27.463Z,94807.78
2022-11-24T15:30:55.497Z,94795.91
2022-11-24T15:33:23.236Z,94792.94
2022-11-24T15:35:49.933Z,94804.22
2022-11-24T15:38:16.987Z,94810.16
2022-11-24T15:40:46.337Z,94796.84
2022-11-24T15:43:18.132Z,94805.72
2022-11-24T15:45:44.547Z,94799.84
2022-11-24T15:48:14.882Z,94804.13
2022-11-24T15:50:45.044Z,94809.19
2022-11-24T15:53:37.729Z,94789.16
2022-11-24T15:56:08.012Z,94795.09
2022-11-24T15:58:34.556Z,94799.13
2022-11-24T16:01:01.155Z,94789.56
2022-11-24T16:03:57.471Z,94800.34
2022-11-24T16:06:22.194Z,94793.94
2022-11-24T16:08:51.253Z,94780.16
2022-11-24T16:11:17.621Z,94793.41
2022-11-24T16:13:50.117Z,94800.38
2022-11-24T16:16:18.575Z,94795.03
2022-11-24T16:18:45.376Z,94802.44
2022-11-24T16:21:12.000Z,94799.44
2022-11-24T16:23:38.426Z,94800.25
2022-11-24T16:26:05.580Z,94797.31
2022-11-24T16:28:32.539Z,94786.19
2022-11-24T16:30:58.919Z,94800.78
2022-11-24T16:33:25.308Z,94807.25
2022-11-24T16:35:51.720Z,94793.69
2022-11-24T16:38:19.751Z,94797.13
2022-11-24T16:40:53.345Z,94806.00
2022-11-24T16:43:20.149Z,94803.41
2022-11-24T16:45:46.601Z,94809.44
2022-11-24T16:48:13.065Z,94803.00
2022-11-24T16:50:39.420Z,94806.81
2022-11-24T16:53:05.817Z,94815.31
2022-11-24T16:55:32.217Z,94806.06
2022-11-24T16:57:58.581Z,94824.41
2022-11-24T17:00:24.952Z,94819.34
2022-11-24T17:02:51.389Z,94816.66
2022-11-24T17:05:17.840Z,94823.66
2022-11-24T17:07:44.268Z,94817.19
2022-11-24T17:10:10.849Z,94811.16
2022-11-24T17:12:37.634Z,94817.91
2022-11-24T17:18:22.311Z,94801.03
2022-11-24T17:20:38.053Z,94811.31
2022-11-24T17:23:04.457Z,94808.50
2022-11-24T17:25:32.846Z,94812.94
2022-11-24T17:27:59.263Z,94813.94
2022-11-24T17:30:25.624Z,94817.34
2022-11-24T17:32:56.634Z,94818.78
2022-11-24T17:35:23.562Z,94826.47
2022-11-24T17:37:49.987Z,94827.09
2022-11-24T17:40:34.266Z,94824.13
2022-11-24T17:43:01.437Z,94822.44
2022-11-24T17:45:29.432Z,94818.84
2022-11-24T17:47:58.392Z,94819.03
2022-11-24T17:50:26.299Z,94823.06
2022-11-24T17:52:54.113Z,94831.34
2022-11-24T17:55:20.887Z,94818.66
2022-11-24T17:57:47.274Z,94829.38
2022-11-24T18:00:14.268Z,94820.13
2022-11-24T18:02:40.770Z,94834.44
2022-11-24T18:05:07.501Z,94820.09
2022-11-24T18:07:36.600Z,94834.84
2022-11-24T18:10:04.149Z,94824.34
2022-11-24T18:12:30.521Z,94828.47
2022-11-24T18:14:56.970Z,94829.81
2022-11-24T18:17:23.394Z,94834.03
2022-11-24T18:19:49.812Z,94843.22
2022-11-24T18:22:16.196Z,94840.19
2022-11-24T18:24:42.584Z,94835.28
2022-11-24T18:27:08.953Z,94829.78
2022-11-24T18:29:35.334Z,94832.81
2022-11-24T18:32:02.193Z,94831.44
2022-11-24T18:34:28.626Z,94827.81
2022-11-24T18:37:02.380Z,94814.88
2022-11-24T18:39:29.727Z,94835.69
2022-11-24T18:41:56.123Z,94839.38
2022-11-24T18:44:22.609Z,94832.28
2022-11-24T18:46:49.327Z,94839.75
2022-11-24T18:49:15.718Z,94837.75
2022-11-24T18:51:42.092Z,94840.78
2022-11-24T18:54:08.672Z,94842.59
2022-11-24T18:56:35.079Z,94841.56
2022-11-24T18:59:01.552Z,94839.75
2022-11-24T19:01:29.204Z,94839.75
2022-11-24T19:03:58.110Z,94844.88
2022-11-24T19:06:32.472Z,94839.16
2022-11-24T19:09:01.892Z,94835.59
2022-11-24T19:11:32.450Z,94814.09
2022-11-24T19:13:59.439Z,94828.50
2022-11-24T19:16:26.444Z,94830.53
2022-11-24T19:18:56.653Z,94826.88
2022-11-24T19:21:23.121Z,94827.25
2022-11-24T19:23:50.071Z,94829.94
2022-11-24T19:26:16.548Z,94815.59
2022-11-24T19:28:43.070Z,94820.41
2022-11-24T19:31:12.628Z,94820.41
2022-11-24T19:33:39.363Z,94815.56
2022-11-24T19:36:08.292Z,94809.66
2022-11-24T19:38:35.400Z,94808.22
2022-11-24T19:41:06.684Z,94817.56
2022-11-24T19:43:34.037Z,94825.06
2022-11-24T19:46:08.142Z,94825.66
2022-11-24T19:48:37.402Z,94816.81
2022-11-24T19:51:10.058Z,94819.03
2022-11-24T19:53:36.505Z,94825.91
2022-11-24T19:56:26.957Z,94822.09
2022-11-24T19:58:55.068Z,94818.81
2022-11-24T20:01:29.833Z,94805.94
2022-11-24T20:04:00.331Z,94806.72
2022-11-24T20:06:38.277Z,94804.28
2022-11-24T20:09:07.521Z,94803.91
2022-11-24T20:11:33.953Z,94806.31
2022-11-24T20:14:00.349Z,94788.13
2022-11-24T20:16:32.123Z,94807.72
2022-11-24T20:19:00.910Z,94816.00
2022-11-24T20:21:31.420Z,94806.13
2022-11-24T20:23:58.844Z,94808.97
2022-11-24T20:26:28.083Z,94813.66
2022-11-24T20:28:56.017Z,94813.03
2022-11-24T20:31:25.229Z,94818.09
2022-11-24T20:33:51.952Z,94799.91
2022-11-24T20:36:21.643Z,94805.75
2022-11-24T20:38:49.111Z,94811.19
2022-11-24T20:41:18.504Z,94815.47
2022-11-24T20:43:45.673Z,94816.09
2022-11-24T20:46:15.257Z,94816.47
2022-11-24T20:48:41.742Z,94816.91
2022-11-24T20:51:14.058Z,94814.84
2022-11-24T20:53:40.571Z,94824.88
2022-11-24T20:56:10.163Z,94818.81
2022-11-24T20:58:37.905Z,94821.19
2022-11-24T21:01:11.160Z,94818.38
2022-11-24T21:03:42.764Z,94814.53
2022-11-24T21:06:11.956Z,94824.47
2022-11-24T21:08:40.463Z,94801.22
2022-11-24T21:11:08.903Z,94818.56
2022-11-24T21:13:36.972Z,94801.78
2022-11-24T21:16:21.318Z,94806.22
2022-11-24T21:18:52.348Z,94807.63
2022-11-24T21:21:22.789Z,94800.56
2022-11-24T21:23:49.333Z,94795.91
2022-11-24T21:26:17.609Z,94789.28
2022-11-24T21:28:46.064Z,94814.88
2022-11-24T21:31:18.553Z,94797.16
2022-11-24T21:33:47.479Z,94800.44
2022-11-24T21:36:16.203Z,94795.16
2022-11-24T21:38:42.805Z,94802.47
2022-11-24T21:41:10.504Z,94799.38
2022-11-24T21:43:37.246Z,94797.84
2022-11-24T21:46:09.170Z,94791.91
2022-11-24T21:48:36.654Z,94799.03
2022-11-24T21:51:05.384Z,94773.34
2022-11-24T21:53:34.275Z,94777.78
2022-11-24T21:56:05.069Z,94762.84
2022-11-24T21:58:31.713Z,94772.53
2022-11-24T22:01:05.771Z,94764.66
2022-11-24T22:03:32.233Z,94782.25
2022-11-24T22:06:00.361Z,94779.59
2022-11-24T22:08:28.692Z,94788.94
2022-11-24T22:11:07.517Z,94784.56
2022-11-24T22:13:34.384Z,94776.16
2022-11-24T22:16:03.209Z,94765.28
2022-11-24T22:18:34.195Z,94782.47
2022-11-24T22:21:02.792Z,94784.69
2022-11-24T22:23:33.612Z,94779.38
2022-11-24T22:26:26.486Z,94780.59
2022-11-24T22:28:57.085Z,94786.66
2022-11-24T22:31:32.176Z,94785.69
2022-11-24T22:34:00.295Z,94771.75
2022-11-24T22:36:28.730Z,94791.84
2022-11-24T22:39:02.867Z,94774.94
2022-11-24T22:41:31.061Z,94779.41
2022-11-24T22:43:57.466Z,94783.84
2022-11-24T22:46:26.362Z,94778.19
2022-11-24T22:48:54.343Z,94785.66
2022-11-24T22:51:23.957Z,94786.47
2022-11-24T22:53:53.516Z,94788.88
2022-11-24T22:56:20.876Z,94778.78
2022-11-24T22:58:47.836Z,94781.63
2022-11-24T23:01:17.105Z,94790.41
2022-11-24T23:03:44.153Z,94787.47
2022-11-24T23:06:13.652Z,94786.25
2022-11-24T23:08:40.344Z,94787.88
2022-11-24T23:11:20.099Z,94772.31
2022-11-24T23:13:46.786Z,94787.88
2022-11-24T23:16:15.629Z,94783.84
2022-11-24T23:18:43.176Z,94786.16
2022-11-24T23:21:18.488Z,94780.81
2022-11-24T23:23:45.695Z,94774.34
2022-11-24T23:26:23.573Z,94776.38
2022-11-24T23:28:50.888Z,94766.47
2022-11-24T23:31:20.235Z,94778.19
2022-11-24T23:33:47.586Z,94779.00
2022-11-24T23:36:19.484Z,94763.03
2022-11-24T23:38:46.707Z,94763.84
2022-11-24T23:41:16.167Z,94769.41
2022-11-24T23:43:43.059Z,94772.81
2022-11-24T23:46:12.233Z,94763.22
2022-11-24T23:48:39.530Z,94753.56
2022-11-24T23:51:23.868Z,94760.81
2022-11-24T23:53:51.413Z,94753.97
2022-11-24T23:56:20.111Z,94761.63
2022-11-24T23:58:46.974Z,94766.69
